Wetterdaten: aktuell Mittwoch, 25.04.2018 12:10
Datum Zeit Temp. A. Feuchte A. Luftdruck Regen Wind Richtung Richtung Taupunkt Windchill Windben Empfang
25.04.2018 12:10 10,6 C 85 % 1009,1 hPa 0,0 l/m 7,6 km/h (2 Bft) SW 217 8,2 C 9,8 C 19,7 km/h (3 Bft) 98 %
25.04.2018 12:00 10,3 C 85 % 1008,9 hPa 0,0 l/m 8,4 km/h (2 Bft) SW 223 7,9 C 8,9 C 23,7 km/h (4 Bft) 100 %
25.04.2018 11:50 10,2 C 86 % 1008,8 hPa 0,0 l/m 7,4 km/h (2 Bft) W-NW 285 8,0 C 9,5 C 23,7 km/h (4 Bft) 100 %
25.04.2018 11:40 10,0 C 87 % 1008,7 hPa 0,0 l/m 5,6 km/h (1 Bft) S-SW 211 7,9 C 10,0 C 15,8 km/h (3 Bft) 100 %
25.04.2018 11:30 10,0 C 88 % 1008,6 hPa 0,0 l/m 4,8 km/h (1 Bft) W 265 8,1 C 10,0 C 17,7 km/h (3 Bft) 98 %
25.04.2018 11:20 9,9 C 88 % 1008,5 hPa 0,0 l/m 5,6 km/h (1 Bft) NW 316 8,0 C 9,9 C 19,7 km/h (3 Bft) 99 %
25.04.2018 11:10 10,1 C 87 % 1008,4 hPa 0,0 l/m 5,8 km/h (2 Bft) W 261 8,0 C 10,1 C 21,7 km/h (4 Bft) 98 %
25.04.2018 11:00 10,1 C 87 % 1008,2 hPa 0,0 l/m 6,9 km/h (2 Bft) N-NW 341 8,0 C 9,7 C 23,7 km/h (4 Bft) 100 %
25.04.2018 10:50 10,1 C 85 % 1008,0 hPa 0,0 l/m 9,5 km/h (2 Bft) NW 309 7,7 C 8,0 C 23,7 km/h (4 Bft) 100 %
25.04.2018 10:40 10,3 C 83 % 1007,8 hPa 0,0 l/m 9,3 km/h (2 Bft) N-NO 26 7,5 C 8,3 C 27,6 km/h (4 Bft) 100 %
25.04.2018 10:30 10,7 C 81 % 1007,5 hPa 0,0 l/m 10,8 km/h (2 Bft) N-NW 342 7,6 C 7,9 C 25,6 km/h (4 Bft) 100 %
25.04.2018 10:20 10,7 C 81 % 1007,2 hPa 0,0 l/m 7,5 km/h (2 Bft) W-NW 286 7,6 C 9,9 C 31,5 km/h (5 Bft) 99 %
25.04.2018 10:10 10,8 C 81 % 1007,0 hPa 0,0 l/m 9,5 km/h (2 Bft) W-SW 244 7,7 C 8,8 C 23,7 km/h (4 Bft) 100 %
25.04.2018 10:00 10,9 C 80 % 1006,8 hPa 0,0 l/m 10,8 km/h (2 Bft) SW 219 7,6 C 8,2 C 25,6 km/h (4 Bft) 100 %
25.04.2018 09:50 11,0 C 81 % 1006,6 hPa 0,0 l/m 9,3 km/h (2 Bft) W-NW 283 7,9 C 9,1 C 31,5 km/h (5 Bft) 98 %
25.04.2018 09:40 11,0 C 81 % 1006,4 hPa 0,0 l/m 10,2 km/h (2 Bft) W-NW 300 7,9 C 8,6 C 25,6 km/h (4 Bft) 98 %
25.04.2018 09:30 11,1 C 82 % 1006,1 hPa 0,0 l/m 9,4 km/h (2 Bft) SW 232 8,1 C 9,1 C 31,5 km/h (5 Bft) 99 %
25.04.2018 09:20 11,1 C 83 % 1006,0 hPa 0,0 l/m 8,0 km/h (2 Bft) W 280 8,3 C 10,0 C 19,7 km/h (3 Bft) 100 %
25.04.2018 09:10 11,1 C 83 % 1005,8 hPa 0,0 l/m 10,9 km/h (2 Bft) N-NW 333 8,3 C 8,3 C 29,6 km/h (5 Bft) 100 %
25.04.2018 09:00 11,3 C 84 % 1005,7 hPa 0,0 l/m 12,9 km/h (3 Bft) NW 310 8,7 C 7,6 C 33,5 km/h (5 Bft) 99 %
25.04.2018 08:50 11,6 C 85 % 1005,2 hPa 0,0 l/m 15,0 km/h (3 Bft) W-NW 285 9,2 C 7,1 C 37,5 km/h (5 Bft) 99 %
25.04.2018 08:40 11,8 C 85 % 1004,7 hPa 0,0 l/m 14,0 km/h (3 Bft) S-SW 205 9,4 C 7,7 C 39,4 km/h (6 Bft) 98 %
25.04.2018 08:30 11,8 C 87 % 1004,7 hPa 0,0 l/m 14,3 km/h (3 Bft) S 182 9,7 C 7,6 C 39,4 km/h (6 Bft) 100 %
25.04.2018 08:20 11,9 C 90 % 1004,6 hPa 0,0 l/m 15,1 km/h (3 Bft) W 277 10,3 C 7,4 C 39,4 km/h (6 Bft) 99 %
25.04.2018 08:10 12,0 C 91 % 1004,3 hPa 0,0 l/m 14,9 km/h (3 Bft) S-SW 204 10,6 C 7,6 C 31,5 km/h (5 Bft) 96 %
25.04.2018 08:00 11,9 C 91 % 1004,2 hPa 0,0 l/m 14,9 km/h (3 Bft) SW 232 10,5 C 7,5 C 39,4 km/h (6 Bft) 98 %
25.04.2018 07:50 11,9 C 92 % 1004,1 hPa 0,0 l/m 15,9 km/h (3 Bft) W-SW 241 10,6 C 7,1 C 43,4 km/h (6 Bft) 98 %
25.04.2018 07:40 11,9 C 92 % 1004,0 hPa 0,0 l/m 17,1 km/h (3 Bft) SW 229 10,6 C 6,7 C 39,4 km/h (6 Bft) 99 %
25.04.2018 07:30 11,9 C 93 % 1003,8 hPa 0,0 l/m 19,6 km/h (3 Bft) SW 234 10,8 C 5,9 C 39,4 km/h (6 Bft) 99 %
25.04.2018 07:20 11,8 C 93 % 1003,6 hPa 0,0 l/m 20,5 km/h (4 Bft) S-SW 209 10,7 C 5,5 C 43,4 km/h (6 Bft) 100 %
25.04.2018 07:10 11,9 C 93 % 1003,6 hPa 0,0 l/m 17,8 km/h (3 Bft) SW 215 10,8 C 6,4 C 45,3 km/h (6 Bft) 100 %
25.04.2018 07:00 12,0 C 93 % 1003,7 hPa 0,0 l/m 13,9 km/h (3 Bft) SW 226 10,9 C 8,0 C 35,5 km/h (5 Bft) 99 %
25.04.2018 06:50 12,1 C 92 % 1003,7 hPa 0,0 l/m 18,1 km/h (3 Bft) S-SW 192 10,8 C 6,6 C 43,4 km/h (6 Bft) 99 %
25.04.2018 06:40 12,4 C 91 % 1003,5 hPa 0,2 l/m 16,6 km/h (3 Bft) W 265 11,0 C 7,5 C 57,2 km/h (7 Bft) 100 %
25.04.2018 06:30 12,8 C 90 % 1003,6 hPa 0,8 l/m 8,9 km/h (2 Bft) SW 225 11,2 C 11,3 C 25,6 km/h (4 Bft) 99 %
25.04.2018 06:20 13,5 C 86 % 1003,3 hPa 1,6 l/m 12,2 km/h (2 Bft) SW 219 11,2 C 10,5 C 31,5 km/h (5 Bft) 100 %
25.04.2018 06:10 13,8 C 82 % 1003,1 hPa 0,0 l/m 13,5 km/h (3 Bft) W-SW 245 10,8 C 10,3 C 33,5 km/h (5 Bft) 100 %
25.04.2018 06:00 13,8 C 82 % 1003,2 hPa 0,0 l/m 14,6 km/h (3 Bft) SW 232 10,8 C 9,9 C 31,5 km/h (5 Bft) 99 %
25.04.2018 05:50 13,8 C 82 % 1003,3 hPa 0,0 l/m 16,8 km/h (3 Bft) S-SW 207 10,8 C 9,1 C 35,5 km/h (5 Bft) 100 %
25.04.2018 05:40 13,9 C 82 % 1003,3 hPa 0,0 l/m 18,7 km/h (3 Bft) S 170 10,9 C 8,7 C 45,3 km/h (6 Bft) 100 %
25.04.2018 05:30 13,9 C 82 % 1003,3 hPa 0,0 l/m 18,6 km/h (3 Bft) W-SW 254 10,9 C 8,7 C 37,5 km/h (5 Bft) 99 %
25.04.2018 05:20 13,9 C 82 % 1003,6 hPa 0,0 l/m 19,5 km/h (3 Bft) S-SW 196 10,9 C 8,5 C 41,4 km/h (6 Bft) 98 %
25.04.2018 05:10 14,0 C 82 % 1003,6 hPa 0,0 l/m 17,2 km/h (3 Bft) S 178 11,0 C 9,3 C 35,5 km/h (5 Bft) 100 %
25.04.2018 05:00 14,0 C 82 % 1003,7 hPa 0,0 l/m 17,0 km/h (3 Bft) S-SW 193 11,0 C 9,3 C 45,3 km/h (6 Bft) 99 %
25.04.2018 04:50 14,0 C 82 % 1003,8 hPa 0,0 l/m 16,7 km/h (3 Bft) S-SW 204 11,0 C 9,4 C 37,5 km/h (5 Bft) 98 %
25.04.2018 04:40 14,0 C 82 % 1003,9 hPa 0,0 l/m 18,8 km/h (3 Bft) SW 215 11,0 C 8,8 C 43,4 km/h (6 Bft) 100 %
25.04.2018 04:30 14,0 C 82 % 1004,0 hPa 0,0 l/m 17,8 km/h (3 Bft) S-SW 206 11,0 C 9,1 C 41,4 km/h (6 Bft) 99 %
25.04.2018 04:20 14,0 C 82 % 1004,1 hPa 0,0 l/m 16,8 km/h (3 Bft) W 259 11,0 C 9,4 C 33,5 km/h (5 Bft) 100 %
25.04.2018 04:10 13,9 C 82 % 1004,3 hPa 0,0 l/m 15,1 km/h (3 Bft) S-SW 202 10,9 C 9,8 C 31,5 km/h (5 Bft) 100 %
25.04.2018 04:00 13,9 C 82 % 1004,4 hPa 0,0 l/m 16,2 km/h (3 Bft) S-SO 150 10,9 C 9,5 C 35,5 km/h (5 Bft) 99 %
25.04.2018 03:50 13,8 C 82 % 1004,4 hPa 0,0 l/m 14,8 km/h (3 Bft) S 182 10,8 C 9,8 C 31,5 km/h (5 Bft) 100 %
25.04.2018 03:40 13,8 C 82 % 1004,5 hPa 0,0 l/m 13,8 km/h (3 Bft) S 178 10,8 C 10,2 C 29,6 km/h (5 Bft) 100 %
25.04.2018 03:30 13,7 C 82 % 1004,7 hPa 0,0 l/m 15,1 km/h (3 Bft) S 188 10,7 C 9,6 C 25,6 km/h (4 Bft) 99 %
25.04.2018 03:21 13,7 C 83 % 1004,7 hPa 0,0 l/m 15,7 km/h (3 Bft) SO 131 10,9 C 9,4 C 35,5 km/h (5 Bft) 98 %
25.04.2018 03:10 13,8 C 81 % 1004,9 hPa 0,0 l/m 17,3 km/h (3 Bft) SW 229 10,6 C 9,0 C 39,4 km/h (6 Bft) 100 %
25.04.2018 03:00 13,7 C 81 % 1005,1 hPa 0,0 l/m 16,4 km/h (3 Bft) SW 214 10,5 C 9,1 C 33,5 km/h (5 Bft) 97 %
25.04.2018 02:50 13,6 C 82 % 1005,3 hPa 0,0 l/m 13,8 km/h (3 Bft) S 182 10,6 C 9,9 C 31,5 km/h (5 Bft) 100 %
25.04.2018 02:40 13,5 C 82 % 1005,3 hPa 0,0 l/m 13,8 km/h (3 Bft) S 185 10,5 C 9,8 C 29,6 km/h (5 Bft) 98 %
25.04.2018 02:30 13,4 C 82 % 1005,6 hPa 0,0 l/m 12,5 km/h (3 Bft) S 186 10,4 C 10,2 C 23,7 km/h (4 Bft) 98 %
25.04.2018 02:20 13,3 C 82 % 1005,7 hPa 0,0 l/m 12,2 km/h (2 Bft) S-SW 209 10,3 C 10,2 C 27,6 km/h (4 Bft) 99 %
25.04.2018 02:10 13,3 C 82 % 1005,8 hPa 0,0 l/m 12,4 km/h (3 Bft) S-SW 201 10,3 C 10,1 C 23,7 km/h (4 Bft) 100 %
25.04.2018 02:00 13,2 C 83 % 1006,1 hPa 0,0 l/m 11,9 km/h (2 Bft) S 185 10,4 C 10,2 C 25,6 km/h (4 Bft) 98 %
25.04.2018 01:50 13,1 C 84 % 1006,3 hPa 0,0 l/m 10,6 km/h (2 Bft) S-SW 202 10,5 C 10,7 C 25,6 km/h (4 Bft) 99 %
25.04.2018 01:40 12,9 C 84 % 1006,4 hPa 0,2 l/m 11,9 km/h (2 Bft) S 190 10,3 C 9,9 C 27,6 km/h (4 Bft) 99 %
25.04.2018 01:30 12,8 C 84 % 1006,7 hPa 0,0 l/m 11,4 km/h (2 Bft) SW 231 10,2 C 10,0 C 29,6 km/h (5 Bft) 100 %
25.04.2018 01:20 12,7 C 85 % 1006,7 hPa 0,0 l/m 12,3 km/h (3 Bft) SO 134 10,2 C 9,5 C 27,6 km/h (4 Bft) 100 %
25.04.2018 01:10 12,4 C 86 % 1006,9 hPa 0,0 l/m 11,4 km/h (2 Bft) W-SW 245 10,1 C 9,6 C 27,6 km/h (4 Bft) 100 %
25.04.2018 01:00 12,3 C 86 % 1007,0 hPa 0,0 l/m 10,0 km/h (2 Bft) S 191 10,0 C 10,1 C 19,7 km/h (3 Bft) 100 %
25.04.2018 00:50 12,2 C 87 % 1007,3 hPa 0,0 l/m 9,9 km/h (2 Bft) S-SW 194 10,1 C 10,1 C 21,7 km/h (4 Bft) 100 %
25.04.2018 00:40 12,0 C 88 % 1007,5 hPa 0,0 l/m 7,4 km/h (2 Bft) S-SW 202 10,1 C 11,3 C 15,8 km/h (3 Bft) 99 %
25.04.2018 00:30 11,9 C 89 % 1007,8 hPa 0,0 l/m 7,6 km/h (2 Bft) S-SW 199 10,1 C 11,1 C 15,8 km/h (3 Bft) 100 %
25.04.2018 00:20 11,8 C 90 % 1007,9 hPa 0,0 l/m 6,9 km/h (2 Bft) S 187 10,2 C 11,5 C 21,7 km/h (4 Bft) 98 %
25.04.2018 00:10 11,8 C 91 % 1008,2 hPa 0,0 l/m 6,3 km/h (2 Bft) S-SW 193 10,4 C 11,8 C 13,8 km/h (3 Bft) 99 %
25.04.2018 00:00 11,7 C 91 % 1008,4 hPa 0,0 l/m 5,9 km/h (2 Bft) S 186 10,3 C 11,7 C 17,7 km/h (3 Bft) 100 %
24.04.2018 23:50 11,7 C 91 % 1008,7 hPa 0,0 l/m 5,9 km/h (2 Bft) S-SW 207 10,3 C 11,7 C 13,8 km/h (3 Bft) 98 %
24.04.2018 23:40 11,7 C 92 % 1008,9 hPa 0,0 l/m 6,1 km/h (2 Bft) S-SW 192 10,4 C 11,7 C 13,8 km/h (3 Bft) 99 %
24.04.2018 23:30 11,7 C 92 % 1009,1 hPa 0,0 l/m 5,6 km/h (1 Bft) S 190 10,4 C 11,7 C 11,8 km/h (2 Bft) 100 %
24.04.2018 23:20 11,7 C 92 % 1009,4 hPa 0,0 l/m 4,7 km/h (1 Bft) S 190 10,4 C 11,7 C 11,8 km/h (2 Bft) 100 %
24.04.2018 23:10 11,8 C 92 % 1009,6 hPa 0,0 l/m 4,1 km/h (1 Bft) S 182 10,5 C 11,8 C 11,8 km/h (2 Bft) 100 %
24.04.2018 23:00 11,8 C 93 % 1009,8 hPa 0,0 l/m 3,6 km/h (1 Bft) S-SO 165 10,7 C 11,8 C 9,9 km/h (2 Bft) 100 %
24.04.2018 22:50 11,8 C 92 % 1009,9 hPa 0,0 l/m 3,4 km/h (1 Bft) S 189 10,5 C 11,8 C 9,9 km/h (2 Bft) 99 %
24.04.2018 22:40 11,9 C 92 % 1010,1 hPa 0,0 l/m 3,3 km/h (1 Bft) S 190 10,6 C 11,9 C 11,8 km/h (2 Bft) 100 %
24.04.2018 22:30 11,9 C 92 % 1010,4 hPa 0,0 l/m 1,6 km/h (1 Bft) S-SW 205 10,6 C 11,9 C 5,9 km/h (2 Bft) 100 %
24.04.2018 22:20 12,0 C 92 % 1010,6 hPa 0,0 l/m 1,4 km/h (1 Bft) S-SW 205 10,7 C 12,0 C 5,9 km/h (2 Bft) 98 %
24.04.2018 22:10 12,1 C 91 % 1010,7 hPa 0,0 l/m 0,0 km/h (0 Bft) S-SW 205 10,7 C 12,1 C 0,0 km/h (0 Bft) 99 %
24.04.2018 22:00 12,2 C 91 % 1010,8 hPa 0,2 l/m 0,0 km/h (0 Bft) S-SW 205 10,8 C 12,2 C 0,0 km/h (0 Bft) 99 %
24.04.2018 21:50 12,2 C 91 % 1010,9 hPa 0,0 l/m 0,4 km/h (0 Bft) S-SW 205 10,8 C 12,2 C 3,9 km/h (1 Bft) 99 %
24.04.2018 21:40 12,3 C 91 % 1011,0 hPa 0,0 l/m 0,7 km/h (0 Bft) S-SW 205 10,9 C 12,3 C 3,9 km/h (1 Bft) 99 %
24.04.2018 21:30 12,3 C 90 % 1011,0 hPa 0,0 l/m 0,8 km/h (0 Bft) S-SW 205 10,7 C 12,3 C 3,9 km/h (1 Bft) 99 %
24.04.2018 21:20 12,3 C 90 % 1011,1 hPa 0,0 l/m 0,9 km/h (0 Bft) S-SW 205 10,7 C 12,3 C 5,9 km/h (2 Bft) 98 %
24.04.2018 21:10 12,4 C 90 % 1011,2 hPa 0,0 l/m 1,1 km/h (1 Bft) S-SW 205 10,8 C 12,4 C 5,9 km/h (2 Bft) 100 %
24.04.2018 21:00 12,5 C 90 % 1011,2 hPa 0,0 l/m 1,6 km/h (1 Bft) S-SW 205 10,9 C 12,5 C 5,9 km/h (2 Bft) 100 %
24.04.2018 20:50 12,7 C 89 % 1011,3 hPa 0,2 l/m 2,9 km/h (1 Bft) S-SW 205 10,9 C 12,7 C 7,9 km/h (2 Bft) 100 %
24.04.2018 20:40 12,9 C 88 % 1011,4 hPa 0,0 l/m 5,7 km/h (1 Bft) S-SW 198 11,0 C 12,9 C 11,8 km/h (2 Bft) 99 %
24.04.2018 20:30 13,2 C 86 % 1011,5 hPa 0,0 l/m 5,0 km/h (1 Bft) SW 216 10,9 C 13,2 C 11,8 km/h (2 Bft) 98 %
24.04.2018 20:20 13,3 C 85 % 1011,6 hPa 0,0 l/m 4,6 km/h (1 Bft) SW 227 10,8 C 13,3 C 9,9 km/h (2 Bft) 99 %
24.04.2018 20:10 13,5 C 83 % 1011,6 hPa 0,0 l/m 4,2 km/h (1 Bft) S-SW 210 10,7 C 13,5 C 13,8 km/h (3 Bft) 100 %
24.04.2018 20:00 13,7 C 82 % 1011,8 hPa 0,0 l/m 6,2 km/h (2 Bft) S-SW 212 10,7 C 13,7 C 15,8 km/h (3 Bft) 100 %
24.04.2018 19:50 13,9 C 80 % 1011,9 hPa 0,0 l/m 8,9 km/h (2 Bft) S-SW 196 10,5 C 12,5 C 21,7 km/h (4 Bft) 98 %
24.04.2018 19:40 13,9 C 80 % 1011,9 hPa 0,0 l/m 4,9 km/h (1 Bft) SW 220 10,5 C 13,9 C 17,7 km/h (3 Bft) 98 %
24.04.2018 19:30 14,0 C 81 % 1011,9 hPa 0,0 l/m 1,8 km/h (1 Bft) SW 221 10,8 C 14,0 C 7,9 km/h (2 Bft) 99 %
24.04.2018 19:20 13,9 C 80 % 1012,1 hPa 0,0 l/m 5,7 km/h (1 Bft) S 178 10,5 C 13,9 C 13,8 km/h (3 Bft) 98 %
24.04.2018 19:10 14,0 C 80 % 1012,2 hPa 0,0 l/m 7,5 km/h (2 Bft) S-SW 202 10,6 C 13,3 C 17,7 km/h (3 Bft) 99 %
24.04.2018 19:00 14,1 C 80 % 1012,3 hPa 0,0 l/m 5,8 km/h (2 Bft) W-NW 284 10,7 C 14,1 C 17,7 km/h (3 Bft) 100 %
24.04.2018 18:50 14,1 C 80 % 1012,5 hPa 0,0 l/m 6,9 km/h (2 Bft) S-SW 205 10,7 C 13,8 C 13,8 km/h (3 Bft) 99 %
24.04.2018 18:40 14,2 C 80 % 1012,6 hPa 0,0 l/m 6,8 km/h (2 Bft) S 182 10,8 C 14,0 C 17,7 km/h (3 Bft) 100 %
24.04.2018 18:30 14,4 C 77 % 1012,6 hPa 0,0 l/m 8,9 km/h (2 Bft) S-SW 203 10,4 C 13,0 C 19,7 km/h (3 Bft) 100 %
24.04.2018 18:20 14,6 C 74 % 1012,7 hPa 0,0 l/m 7,3 km/h (2 Bft) S-SW 206 10,0 C 14,1 C 21,7 km/h (4 Bft) 98 %
24.04.2018 18:10 14,6 C 73 % 1012,8 hPa 0,0 l/m 9,3 km/h (2 Bft) SW 232 9,8 C 13,0 C 21,7 km/h (4 Bft) 100 %
24.04.2018 18:00 14,7 C 73 % 1012,9 hPa 0,0 l/m 11,5 km/h (2 Bft) S-SW 198 9,9 C 12,1 C 27,6 km/h (4 Bft) 99 %
24.04.2018 17:50 14,8 C 73 % 1012,8 hPa 0,0 l/m 9,7 km/h (2 Bft) S-SO 151 10,0 C 13,0 C 31,5 km/h (5 Bft) 99 %
24.04.2018 17:40 14,7 C 74 % 1012,8 hPa 0,0 l/m 15,9 km/h (3 Bft) S-SW 198 10,1 C 10,5 C 35,5 km/h (5 Bft) 99 %
24.04.2018 17:30 14,7 C 73 % 1012,9 hPa 0,0 l/m 16,1 km/h (3 Bft) S-SW 202 9,9 C 10,5 C 39,4 km/h (6 Bft) 100 %
24.04.2018 17:20 14,6 C 74 % 1013,0 hPa 0,0 l/m 16,6 km/h (3 Bft) SW 232 10,0 C 10,2 C 31,5 km/h (5 Bft) 100 %
24.04.2018 17:10 14,6 C 74 % 1013,1 hPa 0,0 l/m 14,4 km/h (3 Bft) W-NW 301 10,0 C 10,9 C 35,5 km/h (5 Bft) 99 %
24.04.2018 17:00 14,6 C 75 % 1013,2 hPa 0,0 l/m 15,0 km/h (3 Bft) SW 227 10,2 C 10,7 C 33,5 km/h (5 Bft) 99 %
24.04.2018 16:50 14,5 C 75 % 1013,2 hPa 0,0 l/m 15,6 km/h (3 Bft) S-SW 211 10,1 C 10,4 C 33,5 km/h (5 Bft) 99 %
24.04.2018 16:40 14,5 C 76 % 1013,4 hPa 0,0 l/m 14,6 km/h (3 Bft) S-SW 206 10,3 C 10,7 C 39,4 km/h (6 Bft) 100 %
24.04.2018 16:30 14,6 C 76 % 1013,4 hPa 0,0 l/m 12,2 km/h (2 Bft) S-SW 210 10,4 C 11,7 C 31,5 km/h (5 Bft) 99 %
24.04.2018 16:20 14,7 C 76 % 1013,4 hPa 0,0 l/m 15,6 km/h (3 Bft) S-SW 196 10,5 C 10,6 C 43,4 km/h (6 Bft) 98 %
24.04.2018 16:10 14,6 C 78 % 1013,6 hPa 0,0 l/m 13,3 km/h (3 Bft) S-SW 203 10,8 C 11,3 C 27,6 km/h (4 Bft) 98 %
24.04.2018 16:00 14,2 C 78 % 1013,6 hPa 0,0 l/m 17,3 km/h (3 Bft) SW 215 10,4 C 9,5 C 45,3 km/h (6 Bft) 99 %
24.04.2018 15:50 13,8 C 78 % 1013,6 hPa 0,0 l/m 15,0 km/h (3 Bft) S-SW 199 10,0 C 9,7 C 43,4 km/h (6 Bft) 100 %
24.04.2018 15:40 13,3 C 81 % 1013,8 hPa 0,0 l/m 13,1 km/h (3 Bft) W-NW 291 10,1 C 9,9 C 27,6 km/h (4 Bft) 99 %
24.04.2018 15:30 13,1 C 82 % 1013,8 hPa 0,0 l/m 11,7 km/h (2 Bft) S-SO 152 10,1 C 10,2 C 27,6 km/h (4 Bft) 98 %
24.04.2018 15:20 13,1 C 83 % 1013,9 hPa 0,0 l/m 12,2 km/h (2 Bft) SW 219 10,3 C 10,0 C 25,6 km/h (4 Bft) 98 %
24.04.2018 15:10 13,2 C 83 % 1014,1 hPa 0,0 l/m 12,9 km/h (3 Bft) SW 214 10,4 C 9,8 C 31,5 km/h (5 Bft) 100 %
24.04.2018 15:00 13,3 C 81 % 1014,0 hPa 0,0 l/m 14,2 km/h (3 Bft) S-SW 207 10,1 C 9,4 C 27,6 km/h (4 Bft) 99 %
24.04.2018 14:50 13,4 C 82 % 1014,1 hPa 0,0 l/m 13,9 km/h (3 Bft) SW 215 10,4 C 9,7 C 29,6 km/h (5 Bft) 100 %
24.04.2018 14:40 13,1 C 84 % 1014,1 hPa 0,0 l/m 10,6 km/h (2 Bft) W 261 10,5 C 10,7 C 27,6 km/h (4 Bft) 100 %
24.04.2018 14:30 12,8 C 84 % 1014,3 hPa 0,0 l/m 10,9 km/h (2 Bft) W-SW 240 10,2 C 10,2 C 29,6 km/h (5 Bft) 99 %
24.04.2018 14:20 12,8 C 84 % 1014,2 hPa 0,0 l/m 13,3 km/h (3 Bft) SO 132 10,2 C 9,2 C 29,6 km/h (5 Bft) 99 %
24.04.2018 14:10 12,9 C 83 % 1014,2 hPa 0,0 l/m 9,1 km/h (2 Bft) S-SW 205 10,1 C 11,3 C 23,7 km/h (4 Bft) 99 %
24.04.2018 14:00 12,9 C 83 % 1014,4 hPa 0,0 l/m 13,2 km/h (3 Bft) SW 219 10,1 C 9,3 C 27,6 km/h (4 Bft) 99 %
24.04.2018 13:50 12,9 C 83 % 1014,2 hPa 0,0 l/m 13,8 km/h (3 Bft) SW 220 10,1 C 9,1 C 29,6 km/h (5 Bft) 99 %
24.04.2018 13:40 13,1 C 83 % 1014,2 hPa 0,0 l/m 11,5 km/h (2 Bft) S-SW 202 10,3 C 10,3 C 29,6 km/h (5 Bft) 99 %
24.04.2018 13:30 13,1 C 84 % 1014,4 hPa 0,0 l/m 15,3 km/h (3 Bft) SO 145 10,5 C 8,8 C 29,6 km/h (5 Bft) 100 %
24.04.2018 13:20 12,4 C 87 % 1014,4 hPa 0,0 l/m 11,0 km/h (2 Bft) SW 223 10,3 C 9,7 C 29,6 km/h (5 Bft) 99 %
24.04.2018 13:10 12,1 C 88 % 1014,6 hPa 0,0 l/m 8,9 km/h (2 Bft) S-SW 193 10,2 C 10,5 C 25,6 km/h (4 Bft) 99 %
24.04.2018 13:00 11,9 C 87 % 1014,5 hPa 0,0 l/m 11,0 km/h (2 Bft) S-SW 204 9,8 C 9,2 C 31,5 km/h (5 Bft) 99 %
_ Min-Zeit 11:20 17:30 06:10 - 22:00 - - 10:40 07:20 22:00 08:10
Minimum _ 9,9 C 73 % 1003,1 hPa - 0,0 km/h (0 Bft) - - 7,5 C 5,5 C 0,0 km/h (0 Bft) 96 %
_ Max-Zeit 17:50 23:00 13:10 06:20 07:20 - - 06:20 19:00 06:40 14:40
Maximum _ 14,8 C 93 % 1014,6 hPa 1,6 l/m 20,5 km/h
S-SW (4 Bft)
- - 11,2 C 14,1 C 57,2 km/h
SW (7 Bft)
100 %
Durchschnitt _ 12,7 C 84 % 1009,2 hPa #3,2 l/m 10,7 km/h (2 Bft) S-SW - 10,1 C 10,2 C 26,5 km/h (4 Bft) 99 %